Time;durP1;ratioP1;P1;durP2;ratioP2;P2;SDS_P1;SDS_P2;PMS_P1;PMS_P2;Temp;Humidity;BMP_temperature;BMP_pressure;BME280_temperature;BME280_humidity;BME280_pressure;Samples;Min_cycle;Max_cycle;Signal;HPM_P1;HPM_P2
2021/05/21 00:00:17;;;;;;;18.75;7.50;;;;;;;10.25;52.30;98947.16;125378;1100;103078;-77
2021/05/21 00:03:07;;;;;;;18.37;7.60;;;;;;;10.21;52.52;98951.00;125408;1107;103025;-80
2021/05/21 00:05:36;;;;;;;21.65;8.05;;;;;;;10.19;52.33;98949.43;125411;1107;103022;-78
2021/05/21 00:08:10;;;;;;;17.73;7.43;;;;;;;10.12;52.55;98949.88;125434;1100;103094;-76
2021/05/21 00:10:39;;;;;;;18.13;7.63;;;;;;;10.04;52.31;98952.23;125406;1107;103000;-77
2021/05/21 00:13:07;;;;;;;19.23;7.80;;;;;;;9.98;52.62;98945.56;125413;1107;103003;-76
2021/05/21 00:15:35;;;;;;;20.87;7.60;;;;;;;9.97;52.78;98945.69;125419;1100;103106;-76
2021/05/21 00:18:04;;;;;;;17.07;6.60;;;;;;;9.94;52.82;98944.08;125415;1107;103000;-78
2021/05/21 00:20:35;;;;;;;18.93;6.60;;;;;;;9.87;52.94;98937.51;125439;1107;103030;-75
2021/05/21 00:23:03;;;;;;;15.20;6.33;;;;;;;9.85;52.75;98951.88;125385;1100;103019;-76
2021/05/21 00:25:31;;;;;;;17.83;7.10;;;;;;;9.80;52.78;98950.39;125408;1107;103068;-76
2021/05/21 00:28:00;;;;;;;16.53;6.93;;;;;;;9.77;52.81;98947.95;125423;1107;103133;-75
2021/05/21 00:30:28;;;;;;;15.50;6.67;;;;;;;9.74;53.15;98948.17;125445;1107;103658;-75
2021/05/21 00:32:56;;;;;;;17.70;7.00;;;;;;;9.73;52.95;98937.67;125406;1100;103158;-76
2021/05/21 00:35:25;;;;;;;13.53;6.00;;;;;;;9.71;53.31;98935.11;125432;1100;103238;-76
2021/05/21 00:37:53;;;;;;;16.37;6.57;;;;;;;9.71;53.41;98939.59;125532;1107;103029;-76
2021/05/21 00:40:23;;;;;;;17.20;7.00;;;;;;;9.69;53.49;98939.67;127172;1107;100823;-76
2021/05/21 00:42:52;;;;;;;17.27;6.70;;;;;;;9.70;53.30;98935.23;127151;1107;100852;-76
2021/05/21 00:45:22;;;;;;;16.10;6.50;;;;;;;9.70;53.50;98936.06;125517;1107;103132;-78
2021/05/21 00:47:50;;;;;;;16.47;6.10;;;;;;;9.72;53.46;98939.46;125427;1107;103072;-75
2021/05/21 00:50:19;;;;;;;15.80;6.50;;;;;;;9.73;53.61;98937.67;125711;1104;103084;-76
2021/05/21 00:52:48;;;;;;;14.13;6.20;;;;;;;9.72;53.86;98935.97;125763;1104;103094;-75
2021/05/21 00:55:17;;;;;;;15.83;6.30;;;;;;;9.72;53.95;98943.94;125755;1104;103074;-76
2021/05/21 00:57:46;;;;;;;14.73;6.00;;;;;;;9.70;53.90;98952.00;125743;1104;102997;-77
2021/05/21 01:00:14;;;;;;;15.97;6.23;;;;;;;9.70;53.79;98951.17;125723;1104;103109;-77
2021/05/21 01:02:43;;;;;;;13.23;5.73;;;;;;;9.69;53.85;98947.64;125700;1100;103055;-78
2021/05/21 01:05:14;;;;;;;12.13;5.47;;;;;;;9.67;53.89;98947.77;125922;1100;103003;-79
2021/05/21 01:07:42;;;;;;;14.10;6.17;;;;;;;9.66;53.88;98946.07;125594;1104;103020;-78
2021/05/21 01:10:14;;;;;;;15.10;6.20;;;;;;;9.66;54.15;98950.52;125439;1104;103226;-78
2021/05/21 01:12:43;;;;;;;17.43;6.97;;;;;;;9.64;54.24;98955.09;125531;1104;103022;-80
2021/05/21 01:15:14;;;;;;;17.87;6.20;;;;;;;9.64;54.13;98955.09;125572;1099;103164;-82
2021/05/21 01:17:42;;;;;;;14.50;5.80;;;;;;;9.62;54.26;98952.55;125575;1104;103229;-78
2021/05/21 01:20:13;;;;;;;19.00;7.85;;;;;;;9.60;54.44;98954.47;125529;1100;103052;-76
2021/05/21 01:22:42;;;;;;;23.47;10.57;;;;;;;9.59;54.48;98965.18;125578;1104;103020;-76
2021/05/21 01:25:10;;;;;;;24.77;11.10;;;;;;;9.55;54.50;98959.25;125427;1105;103116;-77
2021/05/21 01:27:39;;;;;;;23.43;12.00;;;;;;;9.53;54.39;98971.78;125521;1104;103131;-76
2021/05/21 01:30:10;;;;;;;29.87;15.93;;;;;;;9.46;54.46;98963.41;125585;1104;103140;-77
2021/05/21 01:32:38;;;;;;;24.20;12.87;;;;;;;9.43;54.75;98963.63;125522;1104;103477;-77
2021/05/21 01:35:09;;;;;;;18.90;8.27;;;;;;;9.40;54.77;98961.17;125577;1104;103000;-78
2021/05/21 01:37:43;;;;;;;22.07;9.13;;;;;;;9.38;54.59;98960.43;125543;1104;103167;-78
2021/05/21 01:40:15;;;;;;;21.10;8.30;;;;;;;9.33;54.92;98968.73;125435;1105;103044;-81
2021/05/21 01:42:44;;;;;;;18.37;7.30;;;;;;;9.29;54.64;98966.38;125490;1104;103085;-81
2021/05/21 01:45:14;;;;;;;15.80;6.50;;;;;;;9.21;54.71;98964.26;125619;1104;103029;-78
2021/05/21 01:47:48;;;;;;;16.17;6.60;;;;;;;9.16;55.18;98964.58;125610;1100;103046;-79
2021/05/21 01:50:19;;;;;;;14.73;6.13;;;;;;;9.13;55.23;98963.92;125410;1100;103005;-77
2021/05/21 01:52:48;;;;;;;14.43;6.27;;;;;;;9.12;55.09;98964.88;125616;1104;103054;-77
2021/05/21 01:55:16;;;;;;;15.97;6.80;;;;;;;9.13;55.05;98955.97;125528;1100;103026;-77
2021/05/21 01:57:44;;;;;;;14.23;6.23;;;;;;;9.14;55.15;98963.84;125595;1104;103003;-77
2021/05/21 02:00:13;;;;;;;14.53;5.93;;;;;;;9.13;55.38;98961.27;125581;1104;103132;-75
2021/05/21 02:02:44;;;;;;;14.83;6.57;;;;;;;9.09;55.48;98961.48;125410;1104;102992;-76
2021/05/21 02:05:13;;;;;;;13.95;6.00;;;;;;;9.08;55.58;98964.25;125435;1107;103102;-76
2021/05/21 02:07:42;;;;;;;15.07;5.53;;;;;;;9.06;55.44;98951.08;125504;1107;102933;-76
2021/05/21 02:10:13;;;;;;;13.37;6.33;;;;;;;9.07;55.73;98951.94;125597;1100;103035;-76
2021/05/21 02:12:46;;;;;;;14.60;5.83;;;;;;;9.06;55.52;98956.38;125437;1100;103102;-78
2021/05/21 02:15:15;;;;;;;;;;;;;;;9.06;55.96;98956.38;125458;1105;103032;-79
2021/05/21 02:17:45;;;;;;;13.67;5.97;;;;;;;9.05;55.82;98961.80;125371;1107;103145;-77
2021/05/21 02:20:14;;;;;;;13.93;6.47;;;;;;;9.05;55.93;98959.16;125420;1107;103097;-78
2021/05/21 02:22:44;;;;;;;13.93;5.90;;;;;;;9.04;56.09;98952.98;125431;1107;103193;-78
2021/05/21 02:25:14;;;;;;;14.23;6.30;;;;;;;9.05;55.98;98952.03;125403;1107;103039;-78
2021/05/21 02:27:44;;;;;;;16.77;6.60;;;;;;;9.04;55.74;98955.63;125426;1107;103040;-79
2021/05/21 02:30:13;;;;;;;15.50;6.43;;;;;;;9.04;55.99;98960.94;125371;1100;103097;-80
2021/05/21 02:32:44;;;;;;;14.77;6.67;;;;;;;9.01;56.16;98955.84;125434;1107;103131;-79
2021/05/21 02:35:12;;;;;;;14.83;6.57;;;;;;;8.99;55.90;98956.91;125405;1107;103164;-78
2021/05/21 02:37:43;;;;;;;16.93;6.30;;;;;;;8.97;55.86;98957.00;125474;1097;103046;-76
2021/05/21 02:40:11;;;;;;;14.20;6.40;;;;;;;8.96;56.32;98950.02;125477;1104;103573;-78
2021/05/21 02:42:40;;;;;;;12.60;6.03;;;;;;;8.96;56.28;98957.13;125335;1100;103517;-78
2021/05/21 02:45:09;;;;;;;13.00;6.23;;;;;;;8.97;56.26;98957.00;125703;1104;103168;-77
2021/05/21 02:47:37;;;;;;;14.07;6.10;;;;;;;8.97;56.12;98958.81;127578;1104;100904;-79
2021/05/21 02:50:09;;;;;;;13.37;5.80;;;;;;;8.98;56.18;98956.05;125933;1099;103097;-81
2021/05/21 02:52:37;;;;;;;15.10;5.90;;;;;;;9.00;56.16;98961.27;125494;1104;103476;-81
2021/05/21 02:55:10;;;;;;;15.47;6.07;;;;;;;9.01;56.58;98958.50;125533;1104;103058;-82
2021/05/21 02:57:40;;;;;;;17.37;8.43;;;;;;;8.97;56.52;98962.30;125566;1104;102975;-79
2021/05/21 03:00:09;;;;;;;19.37;7.77;;;;;;;8.88;56.02;98966.44;125529;1104;103032;-77
2021/05/21 03:02:42;;;;;;;18.98;7.78;;;;;;;8.73;56.24;98959.53;125559;1104;103052;-77
2021/05/21 03:05:17;;;;;;;17.90;8.37;;;;;;;8.58;56.06;98967.55;125597;1104;103175;-78
2021/05/21 03:07:54;;;;;;;18.47;7.90;;;;;;;8.44;56.26;98963.13;125428;1105;103100;-75
2021/05/21 03:10:26;;;;;;;15.67;7.40;;;;;;;8.32;56.30;98963.92;125614;1100;103100;-77
2021/05/21 03:12:57;;;;;;;17.37;7.73;;;;;;;8.26;56.37;98964.31;125561;1099;103075;-76
2021/05/21 03:15:29;;;;;;;18.73;8.87;;;;;;;8.25;56.41;98966.13;125572;1104;103018;-77
2021/05/21 03:17:59;;;;;;;18.10;8.73;;;;;;;8.30;57.00;98974.63;125599;1104;103110;-82
2021/05/21 03:20:32;;;;;;;17.93;7.80;;;;;;;8.36;56.97;98965.42;125652;1104;103072;-80
2021/05/21 03:23:00;;;;;;;17.20;7.50;;;;;;;8.41;56.89;98965.97;125561;1107;103168;-79
2021/05/21 03:25:30;;;;;;;18.53;8.13;;;;;;;8.45;57.29;98958.66;125733;1104;103093;-81
2021/05/21 03:28:02;;;;;;;16.43;7.83;;;;;;;8.44;56.95;98968.43;125602;1104;103122;-80
2021/05/21 03:30:30;;;;;;;15.70;7.37;;;;;;;8.40;56.54;98966.92;125416;1107;103119;-82
2021/05/21 03:32:58;;;;;;;19.40;8.80;;;;;;;8.23;56.53;98962.73;125546;1104;103139;-80
2021/05/21 03:35:29;;;;;;;20.10;9.23;;;;;;;7.97;56.99;98965.23;125478;1100;103032;-77
2021/05/21 03:38:00;;;;;;;18.43;8.03;;;;;;;7.86;56.98;98967.73;125398;1107;103052;-77
2021/05/21 03:40:30;;;;;;;20.07;8.60;;;;;;;7.82;57.08;98963.58;125576;1104;102995;-77
2021/05/21 03:42:59;;;;;;;19.70;8.80;;;;;;;7.82;57.51;98966.22;125400;1107;102988;-76
2021/05/21 03:45:27;;;;;;;18.53;9.03;;;;;;;7.84;57.46;98967.81;125401;1100;103498;-76
2021/05/21 03:47:58;;;;;;;18.33;7.87;;;;;;;7.85;57.46;98971.33;125420;1107;103000;-77
2021/05/21 03:50:27;;;;;;;19.47;8.73;;;;;;;7.77;57.42;98970.95;125631;1104;102991;-80
2021/05/21 03:52:57;;;;;;;19.17;8.87;;;;;;;7.78;57.51;98967.36;125606;1104;103000;-77
2021/05/21 03:55:25;;;;;;;16.93;7.27;;;;;;;7.85;58.02;98969.52;126016;1100;103200;-76
2021/05/21 03:57:57;;;;;;;19.90;8.70;;;;;;;7.90;57.66;98980.67;125381;1107;103111;-76
2021/05/21 04:00:27;;;;;;;17.73;7.90;;;;;;;7.95;57.73;98975.07;125429;1105;103014;-77
2021/05/21 04:02:56;;;;;;;20.07;8.90;;;;;;;8.02;57.96;98964.95;125387;1107;103102;-77
2021/05/21 04:05:32;;;;;;;18.77;8.53;;;;;;;8.11;58.38;98972.33;125837;1100;103107;-78
2021/05/21 04:08:00;;;;;;;;;;;;;;;8.19;59.06;98977.12;125662;1104;103078;-77
2021/05/21 04:10:29;;;;;;;18.30;7.90;;;;;;;8.27;58.50;98971.31;125407;1100;103095;-76
2021/05/21 04:12:57;;;;;;;16.57;8.33;;;;;;;8.37;58.67;98975.08;125459;1104;103117;-76
2021/05/21 04:15:28;;;;;;;18.70;8.15;;;;;;;8.47;58.65;98976.19;125414;1107;103480;-73
2021/05/21 04:17:56;;;;;;;16.90;7.70;;;;;;;8.58;58.65;98974.63;125426;1106;103133;-77
2021/05/21 04:20:27;;;;;;;17.90;8.13;;;;;;;8.69;58.64;98977.44;125543;1104;103099;-74
2021/05/21 04:22:56;;;;;;;18.70;8.10;;;;;;;8.79;58.76;98981.17;125507;1105;103046;-77
2021/05/21 04:25:25;;;;;;;18.37;8.03;;;;;;;8.90;58.83;98992.88;125478;1107;103003;-73
2021/05/21 04:27:54;;;;;;;21.93;8.33;;;;;;;8.99;59.17;98978.97;125527;1104;103032;-78
2021/05/21 04:30:24;;;;;;;18.97;9.40;;;;;;;9.09;58.86;98980.05;125446;1107;103013;-78
2021/05/21 04:32:55;;;;;;;18.93;8.57;;;;;;;9.20;59.37;98981.97;125548;1104;103293;-77
2021/05/21 04:35:23;;;;;;;18.23;8.10;;;;;;;9.30;59.44;98982.21;125382;1107;103131;-76
2021/05/21 04:37:51;;;;;;;18.50;8.67;;;;;;;9.39;59.18;98984.20;125558;1104;103118;-76
2021/05/21 04:40:20;;;;;;;19.87;8.00;;;;;;;9.50;59.16;98978.17;125428;1107;103106;-74
2021/05/21 04:42:48;;;;;;;18.73;7.57;;;;;;;9.60;59.08;98986.33;125568;1099;102997;-74
2021/05/21 04:45:20;;;;;;;17.23;7.03;;;;;;;9.68;59.40;98976.03;125447;1107;103221;-74
2021/05/21 04:47:48;;;;;;;17.87;7.70;;;;;;;9.78;59.48;98986.01;125544;1104;103065;-76
2021/05/21 04:50:17;;;;;;;18.47;7.97;;;;;;;9.87;59.57;98984.50;125556;1100;103075;-74
2021/05/21 04:52:45;;;;;;;16.00;7.43;;;;;;;9.95;59.24;98982.15;125538;1104;103115;-75
2021/05/21 04:55:13;;;;;;;16.67;7.90;;;;;;;10.04;59.51;98986.78;125589;1104;103000;-70
2021/05/21 04:57:42;;;;;;;16.03;6.97;;;;;;;10.11;59.53;98976.58;125421;1107;103206;-71
2021/05/21 05:00:13;;;;;;;16.27;6.70;;;;;;;10.19;59.39;98976.84;125376;1107;103642;-70
2021/05/21 05:02:41;;;;;;;15.97;6.80;;;;;;;10.26;59.58;98982.58;125576;1100;102995;-70
2021/05/21 05:05:11;;;;;;;17.57;7.27;;;;;;;10.33;59.41;98985.63;126636;1100;101926;-70
2021/05/21 05:07:39;;;;;;;14.50;6.67;;;;;;;10.40;59.48;98982.43;125439;1100;103000;-70
2021/05/21 05:10:12;;;;;;;15.33;6.77;;;;;;;10.48;59.46;98981.02;125563;1104;103030;-71
2021/05/21 05:12:41;;;;;;;14.00;6.53;;;;;;;10.55;59.54;98982.27;125386;1107;103133;-71
2021/05/21 05:15:09;;;;;;;11.93;6.23;;;;;;;10.63;59.50;98992.33;125619;1104;103069;-71
2021/05/21 05:17:38;;;;;;;18.43;7.30;;;;;;;10.71;59.58;98997.94;125389;1107;103053;-71
2021/05/21 05:20:09;;;;;;;17.63;6.83;;;;;;;10.79;59.53;98989.41;125382;1100;103110;-71
2021/05/21 05:22:37;;;;;;;17.53;6.60;;;;;;;10.87;59.74;98993.18;125521;1104;102998;-70
2021/05/21 05:25:06;;;;;;;20.17;7.57;;;;;;;10.96;59.70;98996.11;125345;1107;103034;-71
2021/05/21 05:27:36;;;;;;;15.73;6.87;;;;;;;11.05;59.67;98992.73;125903;1107;102996;-71
2021/05/21 05:30:08;;;;;;;18.00;7.87;;;;;;;11.14;59.60;98991.20;125404;1099;103016;-71
2021/05/21 05:32:37;;;;;;;17.07;7.27;;;;;;;11.20;59.63;98990.73;125417;1107;103072;-71
2021/05/21 05:35:08;;;;;;;18.77;7.90;;;;;;;11.24;59.72;98986.84;125413;1100;103003;-71
2021/05/21 05:37:36;;;;;;;18.50;7.20;;;;;;;11.27;59.64;98991.11;127264;1105;100866;-70
2021/05/21 05:40:08;;;;;;;15.87;7.63;;;;;;;11.29;59.54;98991.84;125710;1104;102991;-71
2021/05/21 05:42:42;;;;;;;16.85;6.75;;;;;;;11.31;59.73;99004.05;125294;1107;103078;-70
2021/05/21 05:45:13;;;;;;;17.70;7.17;;;;;;;11.35;59.67;98999.36;125345;1107;103085;-71
2021/05/21 05:47:45;;;;;;;15.43;6.73;;;;;;;11.39;59.63;98992.83;125536;1104;103023;-71
2021/05/21 05:50:15;;;;;;;16.90;7.37;;;;;;;11.41;59.81;98990.87;125486;1100;103064;-71
2021/05/21 05:52:44;;;;;;;17.47;7.00;;;;;;;11.42;59.71;98989.91;125457;1104;103069;-73
2021/05/21 05:55:12;;;;;;;18.80;7.27;;;;;;;11.46;59.84;98990.53;126005;1099;103072;-70
2021/05/21 05:57:41;;;;;;;20.70;8.33;;;;;;;11.54;59.75;98995.25;126189;1104;103072;-71
2021/05/21 06:00:10;;;;;;;17.43;7.10;;;;;;;11.63;59.83;98989.20;125367;1104;103681;-72
2021/05/21 06:02:38;;;;;;;17.37;7.37;;;;;;;11.74;59.82;98986.55;127111;1107;100891;-71
2021/05/21 06:05:07;;;;;;;15.90;7.60;;;;;;;11.84;59.89;98984.00;126217;1100;103158;-73
2021/05/21 06:07:35;;;;;;;16.60;7.73;;;;;;;11.91;59.97;98985.21;125341;1104;103025;-70
2021/05/21 06:10:05;;;;;;;16.60;6.97;;;;;;;11.99;60.05;98981.96;125357;1104;103091;-71
2021/05/21 06:12:33;;;;;;;14.97;6.60;;;;;;;12.06;59.83;98979.64;125595;1104;103000;-70
2021/05/21 06:15:02;;;;;;;17.23;6.87;;;;;;;12.12;59.87;98973.81;125330;1107;103148;-71
2021/05/21 06:17:31;;;;;;;17.17;7.03;;;;;;;12.18;60.10;98972.49;125413;1104;103023;-72
2021/05/21 06:19:59;;;;;;;17.70;7.55;;;;;;;12.24;60.01;98977.30;125386;1104;103021;-71
2021/05/21 06:22:28;;;;;;;17.67;7.30;;;;;;;12.30;59.92;98975.97;125492;1104;103091;-71
2021/05/21 06:25:05;;;;;;;19.47;7.47;;;;;;;12.35;59.92;98973.78;125444;1104;103029;-72
2021/05/21 06:27:34;;;;;;;14.97;6.60;;;;;;;12.38;59.99;98978.87;125415;1104;103023;-73
2021/05/21 06:30:07;;;;;;;16.47;7.40;;;;;;;12.43;59.87;98971.31;125482;1104;103091;-71
2021/05/21 06:32:35;;;;;;;16.98;7.20;;;;;;;12.47;59.99;98964.75;125384;1100;102992;-71
2021/05/21 06:35:06;;;;;;;15.73;6.93;;;;;;;12.53;60.12;98963.42;125449;1104;103007;-70
2021/05/21 06:37:35;;;;;;;14.73;6.63;;;;;;;12.60;59.93;98959.27;125399;1107;103024;-72
2021/05/21 06:40:10;;;;;;;16.00;6.95;;;;;;;12.68;60.02;98963.09;125516;1104;103458;-72
2021/05/21 06:42:39;;;;;;;14.07;5.77;;;;;;;12.75;59.99;98959.81;125383;1104;103129;-71
2021/05/21 06:45:08;;;;;;;12.37;5.83;;;;;;;12.87;60.11;98963.27;125379;1104;103091;-71
2021/05/21 06:47:37;;;;;;;13.03;5.27;;;;;;;12.98;60.05;98954.34;125372;1107;103097;-71
2021/05/21 06:50:06;;;;;;;14.33;5.83;;;;;;;13.06;60.00;98954.55;125389;1099;103506;-71
2021/05/21 06:52:34;;;;;;;15.20;6.30;;;;;;;13.19;59.83;98950.84;125369;1107;103029;-71
2021/05/21 06:55:04;;;;;;;16.67;6.20;;;;;;;13.33;59.83;98949.65;125351;1107;102832;-71
2021/05/21 06:57:34;;;;;;;15.10;6.13;;;;;;;14.17;59.08;98942.39;125311;1107;103096;-71
2021/05/21 07:00:05;;;;;;;14.13;5.30;;;;;;;16.40;57.05;98928.73;125533;1104;103092;-71
2021/05/21 07:02:33;;;;;;;10.90;5.25;;;;;;;18.32;56.75;98930.59;125584;1104;103139;-70
2021/05/21 07:05:03;;;;;;;11.25;4.90;;;;;;;19.84;56.41;98930.12;125495;1105;103066;-71
2021/05/21 07:07:31;;;;;;;11.43;5.00;;;;;;;21.18;56.63;98923.70;125413;1107;102992;-71
2021/05/21 07:10:01;;;;;;;10.83;4.70;;;;;;;22.29;56.84;98919.35;125464;1104;103069;-71
2021/05/21 07:12:29;;;;;;;7.57;4.20;;;;;;;23.19;56.74;98922.48;125549;1104;102969;-71
2021/05/21 07:14:59;;;;;;;10.07;4.37;;;;;;;24.12;56.60;98915.09;125345;1107;103232;-70
2021/05/21 07:17:27;;;;;;;9.70;4.37;;;;;;;25.29;56.27;98915.89;125492;1104;103225;-72
2021/05/21 07:19:56;;;;;;;8.07;4.27;;;;;;;26.25;56.10;98918.98;125554;1104;103023;-70
2021/05/21 07:22:24;;;;;;;6.73;4.00;;;;;;;26.96;55.90;98919.80;125503;1104;103026;-70
2021/05/21 07:24:53;;;;;;;8.60;4.17;;;;;;;27.55;55.88;98922.19;125550;1104;102997;-72
2021/05/21 07:27:21;;;;;;;9.30;4.30;;;;;;;28.29;55.45;98915.87;125482;1104;103129;-71
2021/05/21 07:29:50;;;;;;;7.10;4.20;;;;;;;28.05;56.29;98917.63;125382;1099;103112;-71
2021/05/21 07:32:18;;;;;;;9.63;4.47;;;;;;;27.42;56.52;98920.41;125334;1107;103056;-69
2021/05/21 07:34:46;;;;;;;9.35;4.20;;;;;;;27.43;56.65;98916.62;125471;1104;103023;-70
2021/05/21 07:37:15;;;;;;;7.37;3.80;;;;;;;28.25;55.35;98911.11;125339;1107;103061;-69
2021/05/21 07:39:43;;;;;;;8.25;3.70;;;;;;;28.58;54.14;98909.78;125302;1107;103025;-70
2021/05/21 07:42:11;;;;;;;6.43;3.70;;;;;;;28.82;53.57;98911.52;125482;1104;103130;-70
2021/05/21 07:44:40;;;;;;;6.33;3.60;;;;;;;29.28;53.14;98912.88;125517;1104;103158;-71
2021/05/21 07:47:08;;;;;;;7.00;3.13;;;;;;;29.54;53.06;98909.67;125459;1104;103545;-70
2021/05/21 07:49:36;;;;;;;6.27;3.47;;;;;;;29.76;52.67;98900.80;125416;1104;101829;-70
2021/05/21 07:52:07;;;;;;;5.45;3.05;;;;;;;30.21;52.90;98896.53;125505;1104;104297;-72
2021/05/21 07:54:36;;;;;;;7.23;3.20;;;;;;;30.79;52.54;98901.95;125379;1107;103094;-71
2021/05/21 07:57:04;;;;;;;5.00;2.83;;;;;;;31.30;52.50;98904.72;125386;1107;103000;-71
2021/05/21 07:59:33;;;;;;;5.00;2.70;;;;;;;30.93;51.66;98912.61;125308;1107;103464;-72
2021/05/21 08:02:02;;;;;;;5.23;2.90;;;;;;;29.48;52.02;98907.06;125443;1104;103089;-71
2021/05/21 08:04:31;;;;;;;4.27;3.07;;;;;;;29.19;51.03;98904.17;125437;1100;103020;-70
2021/05/21 08:06:59;;;;;;;5.87;2.80;;;;;;;29.43;51.40;98895.98;126163;1107;100808;-71
2021/05/21 08:09:28;;;;;;;5.70;3.00;;;;;;;29.67;50.51;98883.91;125321;1100;103108;-71
2021/05/21 08:11:56;;;;;;;4.23;2.83;;;;;;;28.99;51.07;98880.73;125346;1105;103164;-69
2021/05/21 08:14:24;;;;;;;6.53;3.20;;;;;;;28.30;50.78;98886.64;125513;1104;102993;-71
2021/05/21 08:16:52;;;;;;;5.97;3.10;;;;;;;27.30;50.77;98886.73;125398;1107;103150;-70
2021/05/21 08:19:41;;;;;;;5.80;3.40;;;;;;;27.28;49.82;98880.66;125377;1100;103118;-70
2021/05/21 08:22:10;;;;;;;6.80;3.20;;;;;;;27.84;49.35;98880.68;125509;1104;103235;-71
2021/05/21 08:24:39;;;;;;;6.13;3.10;;;;;;;28.13;48.57;98872.75;125352;1107;103118;-70
2021/05/21 08:27:08;;;;;;;4.20;3.10;;;;;;;27.79;48.73;98862.25;125484;1099;103019;-70
2021/05/21 08:29:37;;;;;;;5.53;3.10;;;;;;;26.92;48.31;98863.14;125449;1107;103000;-70
2021/05/21 08:32:05;;;;;;;8.30;3.53;;;;;;;26.90;48.27;98860.64;125356;1107;103125;-72
2021/05/21 08:34:33;;;;;;;4.83;2.97;;;;;;;27.62;47.61;98862.04;125515;1104;103209;-71
2021/05/21 08:37:02;;;;;;;3.70;2.60;;;;;;;28.09;47.21;98853.23;125519;1100;103129;-71
2021/05/21 08:39:30;;;;;;;5.87;2.80;;;;;;;27.98;46.43;98848.54;125508;1100;103091;-71
2021/05/21 08:42:00;;;;;;;5.17;2.83;;;;;;;28.06;46.78;98842.75;125476;1104;103266;-69
2021/05/21 08:44:32;;;;;;;4.03;2.50;;;;;;;28.59;47.14;98837.58;125430;1098;103067;-70
2021/05/21 08:47:00;;;;;;;6.00;3.30;;;;;;;28.88;46.57;98832.27;125536;1104;103028;-70
2021/05/21 08:49:29;;;;;;;7.37;2.60;;;;;;;29.17;45.51;98835.97;125296;1104;103019;-70
2021/05/21 08:52:00;;;;;;;6.43;3.10;;;;;;;29.05;45.60;98835.13;125454;1104;103129;-71
2021/05/21 08:54:36;;;;;;;4.67;2.97;;;;;;;29.42;46.35;98829.39;125509;1100;103097;-70
2021/05/21 08:57:13;;;;;;;5.27;3.57;;;;;;;29.89;45.78;98825.70;125329;1100;103029;-70
2021/05/21 08:59:41;;;;;;;8.00;3.60;;;;;;;29.89;44.75;98825.70;125391;1100;102831;-72
2021/05/21 09:02:24;;;;;;;10.33;3.40;;;;;;;29.55;44.71;98825.55;125480;1100;103116;-70
2021/05/21 09:04:59;;;;;;;6.93;3.33;;;;;;;29.70;44.79;98828.61;125359;1107;103104;-70
2021/05/21 09:07:35;;;;;;;7.27;3.10;;;;;;;29.61;44.62;98829.25;126122;1104;103112;-69
2021/05/21 09:10:12;;;;;;;5.80;3.20;;;;;;;29.83;44.76;98816.52;125769;1100;103050;-70
2021/05/21 09:12:42;;;;;;;4.73;3.03;;;;;;;29.41;44.43;98828.58;125330;1107;103065;-73
2021/05/21 09:15:16;;;;;;;8.13;3.00;;;;;;;29.22;44.32;98824.28;125292;1100;103664;-71
2021/05/21 09:17:56;;;;;;;4.90;3.07;;;;;;;28.02;43.67;98830.61;125347;1105;103092;-71
2021/05/21 09:20:53;;;;;;;5.17;2.73;;;;;;;26.97;43.22;98831.41;125407;1104;103016;-73
2021/05/21 09:23:22;;;;;;;8.60;3.17;;;;;;;26.60;42.87;98828.56;125415;1105;103096;-71
2021/05/21 09:25:53;;;;;;;3.13;2.20;;;;;;;26.71;42.62;98830.54;125820;1107;103136;-72
2021/05/21 09:28:37;;;;;;;4.43;2.73;;;;;;;26.04;42.69;98830.19;125463;1105;103027;-70
2021/05/21 09:31:19;;;;;;;5.35;2.80;;;;;;;25.36;42.47;98821.44;125531;1104;103014;-68
2021/05/21 09:33:52;;;;;;;3.20;2.45;;;;;;;25.01;42.16;98824.46;125849;1107;102989;-71
2021/05/21 09:36:32;;;;;;;7.50;2.90;;;;;;;25.33;41.88;98817.25;125254;1107;103235;-71
2021/05/21 09:39:06;;;;;;;4.83;2.50;;;;;;;25.07;41.99;98809.98;125314;1105;103071;-71
2021/05/21 09:41:58;;;;;;;9.35;3.30;;;;;;;24.66;41.94;98818.16;125436;1104;103488;-72
2021/05/21 09:44:27;;;;;;;6.03;2.63;;;;;;;24.42;41.72;98813.36;125556;1104;103020;-70
2021/05/21 09:46:57;;;;;;;5.37;2.60;;;;;;;24.47;41.64;98805.42;125388;1107;103097;-70
2021/05/21 09:49:38;;;;;;;5.70;2.67;;;;;;;24.63;41.60;98794.14;126381;1104;103145;-70
2021/05/21 09:52:14;;;;;;;5.67;2.57;;;;;;;24.91;41.45;98801.23;125284;1107;103000;-69
2021/05/21 09:54:51;;;;;;;6.03;3.00;;;;;;;24.64;41.42;98786.80;125481;1104;103032;-70
2021/05/21 09:57:30;;;;;;;4.40;2.30;;;;;;;24.52;40.94;98792.86;125503;1104;102997;-70
2021/05/21 09:59:58;;;;;;;4.47;2.50;;;;;;;24.48;40.99;98791.61;125474;1104;103042;-71
2021/05/21 10:02:30;;;;;;;4.57;2.43;;;;;;;24.44;41.54;98782.23;125418;1100;103147;-70
2021/05/21 10:05:04;;;;;;;4.60;2.63;;;;;;;24.41;41.23;98779.07;125362;1107;103094;-73
2021/05/21 10:07:33;;;;;;;5.23;2.73;;;;;;;24.27;41.08;98783.67;125425;1099;103094;-70
2021/05/21 10:10:05;;;;;;;6.23;2.50;;;;;;;23.83;40.97;98781.27;125381;1107;103161;-70
2021/05/21 10:12:38;;;;;;;7.90;3.07;;;;;;;23.47;40.76;98779.70;125329;1100;102998;-70
2021/05/21 10:15:08;;;;;;;5.43;3.17;;;;;;;23.36;41.00;98774.84;125168;1107;103030;-71
2021/05/21 10:17:38;;;;;;;7.63;2.97;;;;;;;23.24;40.44;98783.55;125350;1104;103026;-71
2021/05/21 10:20:12;;;;;;;4.47;2.77;;;;;;;23.15;40.34;98772.00;125387;1105;103117;-71
2021/05/21 10:22:45;;;;;;;5.87;2.10;;;;;;;22.97;40.51;98763.57;125255;1107;103162;-72
2021/05/21 10:25:21;;;;;;;3.57;2.33;;;;;;;22.56;39.77;98767.88;127149;1107;103493;-71
2021/05/21 10:27:53;;;;;;;5.50;2.33;;;;;;;22.34;40.17;98765.19;127469;1104;101137;-70
2021/05/21 10:30:25;;;;;;;4.60;2.20;;;;;;;22.16;39.71;98765.66;127448;1104;101279;-71
2021/05/21 10:33:20;;;;;;;6.30;2.38;;;;;;;22.03;39.76;98769.05;127122;1105;101088;-71
2021/05/21 10:35:49;;;;;;;4.30;2.23;;;;;;;21.97;39.66;98770.67;125827;1105;101569;-70
2021/05/21 10:38:21;;;;;;;2.47;2.10;;;;;;;21.83;39.43;98756.17;125297;1107;103068;-71
2021/05/21 10:41:17;;;;;;;3.20;2.00;;;;;;;21.78;39.32;98749.67;125861;1099;101581;-70
2021/05/21 10:43:52;;;;;;;8.27;2.83;;;;;;;21.67;39.54;98750.98;125220;1107;104124;-74
2021/05/21 10:46:22;;;;;;;3.20;2.17;;;;;;;21.52;39.15;98745.59;125398;1100;103115;-70
2021/05/21 10:49:00;;;;;;;3.73;2.30;;;;;;;21.38;39.19;98741.90;125540;1104;102991;-70
2021/05/21 10:51:50;;;;;;;5.27;2.50;;;;;;;21.30;39.17;98740.15;125485;1104;103072;-71
2021/05/21 10:54:35;;;;;;;3.80;2.27;;;;;;;21.21;39.27;98749.39;125399;1099;103150;-71
2021/05/21 10:57:15;;;;;;;6.57;2.60;;;;;;;21.09;39.16;98740.92;125354;1105;102997;-69
2021/05/21 10:59:56;;;;;;;3.90;2.40;;;;;;;21.11;39.29;98736.99;125449;1104;103136;-70
2021/05/21 11:02:43;;;;;;;4.97;2.50;;;;;;;21.13;39.10;98723.30;125332;1104;103123;-68
2021/05/21 11:05:30;;;;;;;4.43;2.43;;;;;;;21.09;39.21;98722.00;125492;1104;103000;-71
2021/05/21 11:08:13;;;;;;;6.67;2.63;;;;;;;21.07;38.95;98732.16;125346;1107;103276;-71
2021/05/21 11:10:45;;;;;;;6.43;2.63;;;;;;;21.02;39.02;98721.06;125363;1107;103043;-72
2021/05/21 11:13:18;;;;;;;3.43;2.53;;;;;;;21.05;39.27;98715.28;125505;1104;103069;-74
2021/05/21 11:15:55;;;;;;;9.73;3.17;;;;;;;21.10;38.79;98708.27;125420;1100;103141;-70
2021/05/21 11:18:29;;;;;;;5.10;2.60;;;;;;;21.12;38.65;98711.63;125410;1100;103215;-73
2021/05/21 11:21:15;;;;;;;8.40;2.60;;;;;;;21.08;38.87;98699.52;125350;1107;103232;-71
2021/05/21 11:23:48;;;;;;;3.50;2.37;;;;;;;21.14;39.26;98694.38;125478;1105;103000;-70
2021/05/21 11:26:17;;;;;;;5.27;2.50;;;;;;;21.07;38.59;98692.42;125334;1099;103123;-69
2021/05/21 11:28:50;;;;;;;7.55;2.60;;;;;;;21.04;38.79;98686.57;125564;1104;103050;-70
2021/05/21 11:31:47;;;;;;;6.18;2.60;;;;;;;21.02;38.89;98683.22;125349;1104;103091;-71
2021/05/21 11:34:15;;;;;;;8.20;2.87;;;;;;;21.02;38.67;98675.93;125431;1104;103148;-71